createdAt,value
2022-11-25T00:01:10.022Z,4.90
2022-11-25T00:03:36.942Z,4.20
2022-11-25T00:06:13.050Z,4.10
2022-11-25T00:08:40.466Z,3.35
2022-11-25T00:11:07.684Z,5.32
2022-11-25T00:13:34.980Z,4.78
2022-11-25T00:16:07.403Z,3.65
2022-11-25T00:18:35.548Z,5.85
2022-11-25T00:21:13.400Z,3.28
2022-11-25T00:23:40.599Z,3.35
2022-11-25T00:26:13.581Z,3.55
2022-11-25T00:28:41.809Z,3.22
2022-11-25T00:31:17.155Z,3.13
2022-11-25T00:33:44.776Z,3.50
2022-11-25T00:36:42.032Z,2.95
2022-11-25T00:39:14.733Z,3.00
2022-11-25T00:42:00.967Z,3.47
2022-11-25T00:44:38.011Z,2.75
2022-11-25T00:47:13.823Z,3.10
2022-11-25T00:49:43.340Z,2.40
2022-11-25T00:52:13.656Z,2.20
2022-11-25T00:54:40.415Z,3.53
2022-11-25T00:57:07.118Z,2.22
2022-11-25T00:59:33.785Z,2.15
2022-11-25T01:02:00.866Z,3.90
2022-11-25T01:04:27.592Z,3.05
2022-11-25T01:06:56.750Z,2.47
2022-11-25T01:09:23.753Z,2.85
2022-11-25T01:11:51.560Z,2.90
2022-11-25T01:14:19.846Z,2.00
2022-11-25T01:16:47.525Z,2.30
2022-11-25T01:19:14.789Z,3.67
2022-11-25T01:21:41.500Z,3.38
2022-11-25T01:24:08.286Z,2.92
2022-11-25T01:26:36.604Z,2.90
2022-11-25T01:29:08.432Z,2.67
2022-11-25T01:31:36.978Z,2.30
2022-11-25T01:34:06.603Z,3.70
2022-11-25T01:36:34.064Z,3.30
2022-11-25T01:39:01.033Z,2.90
2022-11-25T01:41:31.195Z,4.43
2022-11-25T01:44:20.165Z,2.67
2022-11-25T01:47:07.310Z,3.55
2022-11-25T01:49:40.756Z,2.88
2022-11-25T01:52:31.845Z,3.22
2022-11-25T01:55:30.180Z,3.08
2022-11-25T01:58:00.136Z,3.20
2022-11-25T02:00:26.795Z,3.70
2022-11-25T02:02:55.543Z,2.70
2022-11-25T02:05:35.841Z,3.28
2022-11-25T02:08:04.656Z,2.92
2022-11-25T02:10:32.780Z,2.50
2022-11-25T02:13:00.434Z,2.15
2022-11-25T02:15:29.072Z,2.97
2022-11-25T02:17:56.225Z,1.90
2022-11-25T02:20:24.755Z,2.22
2022-11-25T02:23:12.178Z,2.47
2022-11-25T02:25:41.000Z,1.83
2022-11-25T02:28:16.523Z,1.73
2022-11-25T02:30:43.846Z,2.00
2022-11-25T02:33:10.993Z,2.20
2022-11-25T02:35:43.437Z,2.83
2022-11-25T02:38:22.455Z,2.03
2022-11-25T02:41:00.365Z,2.42
2022-11-25T02:43:27.730Z,2.05
2022-11-25T02:46:05.364Z,1.90
2022-11-25T02:51:28.002Z,1.98
2022-11-25T02:53:55.004Z,2.10
2022-11-25T02:56:23.985Z,2.10
2022-11-25T02:58:50.592Z,2.15
2022-11-25T03:01:17.313Z,2.20
2022-11-25T03:03:44.002Z,2.40
2022-11-25T03:06:10.832Z,2.33
2022-11-25T03:08:38.544Z,2.10
2022-11-25T03:11:05.756Z,1.90
2022-11-25T03:13:32.381Z,2.00
2022-11-25T03:15:59.128Z,2.40
2022-11-25T03:18:26.044Z,2.40
2022-11-25T03:20:53.972Z,2.30
2022-11-25T03:23:21.272Z,2.22
2022-11-25T03:25:47.988Z,1.90
2022-11-25T03:28:14.947Z,2.22
2022-11-25T03:30:41.692Z,2.50
2022-11-25T03:33:08.336Z,2.20
2022-11-25T03:35:35.015Z,2.10
2022-11-25T03:38:01.709Z,2.75
2022-11-25T03:40:28.472Z,2.55
2022-11-25T03:42:55.068Z,2.47
2022-11-25T03:45:21.724Z,3.13
2022-11-25T03:47:48.802Z,3.15
2022-11-25T03:50:16.503Z,2.50
2022-11-25T03:52:43.208Z,2.70
2022-11-25T03:55:10.448Z,2.50
2022-11-25T03:57:37.092Z,2.00
2022-11-25T04:00:04.551Z,2.47
2022-11-25T04:02:31.307Z,2.67
2022-11-25T04:04:58.185Z,2.65
2022-11-25T04:07:25.094Z,2.50
2022-11-25T04:09:51.695Z,2.20
2022-11-25T04:12:36.885Z,3.15
2022-11-25T04:15:04.292Z,3.08
2022-11-25T04:17:30.869Z,2.15
2022-11-25T04:19:57.513Z,2.55
2022-11-25T04:22:24.165Z,3.03
2022-11-25T04:24:50.847Z,2.33
2022-11-25T04:27:19.271Z,2.03
2022-11-25T04:29:47.127Z,2.70
2022-11-25T04:32:14.050Z,2.38
2022-11-25T04:34:40.948Z,2.60
2022-11-25T04:37:07.723Z,2.50
2022-11-25T04:39:34.414Z,2.28
2022-11-25T04:42:19.654Z,2.67
2022-11-25T04:45:01.334Z,2.88
2022-11-25T04:47:32.962Z,2.42
2022-11-25T04:49:59.973Z,2.78
2022-11-25T04:52:26.933Z,2.42
2022-11-25T04:54:53.892Z,2.53
2022-11-25T04:57:21.252Z,2.53
2022-11-25T04:59:48.252Z,2.63
2022-11-25T05:02:27.172Z,2.38
2022-11-25T05:04:55.973Z,2.42
2022-11-25T05:07:25.471Z,2.58
2022-11-25T05:09:52.468Z,2.55
2022-11-25T05:12:22.741Z,2.63
2022-11-25T05:14:49.460Z,3.08
2022-11-25T05:17:19.161Z,3.00
2022-11-25T05:19:46.411Z,2.83
2022-11-25T05:22:15.069Z,3.00
2022-11-25T05:24:41.766Z,2.50
2022-11-25T05:27:09.199Z,2.63
2022-11-25T05:29:36.349Z,2.75
2022-11-25T05:32:03.936Z,2.03
2022-11-25T05:34:30.961Z,2.47
2022-11-25T05:36:58.039Z,3.08
2022-11-25T05:39:24.768Z,2.35
2022-11-25T05:41:51.831Z,1.90
2022-11-25T05:44:22.695Z,2.00
2022-11-25T05:46:50.398Z,2.30
2022-11-25T05:49:18.569Z,1.60
2022-11-25T05:51:45.493Z,2.50
2022-11-25T05:54:12.232Z,2.40
2022-11-25T05:56:38.961Z,1.65
2022-11-25T05:59:06.424Z,2.28
2022-11-25T06:01:33.788Z,1.95
2022-11-25T06:04:04.977Z,2.92
2022-11-25T06:06:32.425Z,2.20
2022-11-25T06:08:59.512Z,2.67
2022-11-25T06:11:26.269Z,2.63
2022-11-25T06:13:52.968Z,2.67
2022-11-25T06:16:22.579Z,2.75
2022-11-25T06:18:50.006Z,2.38
2022-11-25T06:21:17.905Z,3.38
2022-11-25T06:23:47.806Z,2.40
2022-11-25T06:26:23.041Z,2.45
2022-11-25T06:28:54.051Z,2.85
2022-11-25T06:31:22.850Z,4.28
2022-11-25T06:33:50.679Z,2.15
2022-11-25T06:36:18.326Z,3.15
2022-11-25T06:38:47.460Z,2.33
2022-11-25T06:41:14.744Z,2.13
2022-11-25T06:43:41.708Z,2.53
2022-11-25T06:46:10.618Z,3.63
2022-11-25T06:48:38.090Z,2.05
2022-11-25T06:51:07.956Z,2.42
2022-11-25T06:53:35.552Z,2.35
2022-11-25T06:56:12.884Z,2.38
2022-11-25T06:58:40.719Z,2.22
2022-11-25T07:01:15.184Z,2.50
2022-11-25T07:03:43.980Z,2.10
2022-11-25T07:06:13.695Z,2.15
2022-11-25T07:08:41.389Z,1.50
2022-11-25T07:11:36.044Z,1.95
2022-11-25T07:14:06.526Z,2.55
2022-11-25T07:16:34.139Z,2.13
2022-11-25T07:19:02.335Z,2.35
2022-11-25T07:21:30.676Z,1.92
2022-11-25T07:24:00.056Z,2.20
2022-11-25T07:26:30.400Z,1.83
2022-11-25T07:29:02.519Z,4.53
2022-11-25T07:31:33.567Z,2.38
2022-11-25T07:34:11.223Z,1.90
2022-11-25T07:36:38.186Z,2.22
2022-11-25T07:39:08.167Z,1.90
2022-11-25T07:41:35.496Z,2.13
2022-11-25T07:44:05.170Z,2.22
2022-11-25T07:46:34.625Z,2.00
2022-11-25T07:49:04.354Z,2.50
2022-11-25T07:51:42.158Z,2.13
2022-11-25T07:54:11.917Z,2.38
2022-11-25T07:56:40.782Z,1.90
2022-11-25T07:59:10.658Z,2.00
2022-11-25T08:01:37.373Z,2.13
2022-11-25T08:04:04.966Z,3.05
2022-11-25T08:06:31.716Z,2.30
2022-11-25T08:08:58.908Z,2.65
2022-11-25T08:11:28.553Z,2.28
2022-11-25T08:13:55.793Z,2.17
2022-11-25T08:16:26.509Z,1.90
2022-11-25T08:18:54.849Z,1.90
2022-11-25T08:21:21.592Z,2.10
2022-11-25T08:23:49.194Z,2.10
2022-11-25T08:26:22.159Z,1.67
2022-11-25T08:28:49.267Z,2.05
2022-11-25T08:31:28.067Z,1.85
2022-11-25T08:33:55.711Z,1.80
2022-11-25T08:36:22.801Z,1.77
2022-11-25T08:38:52.585Z,1.80
2022-11-25T08:41:25.450Z,2.00
2022-11-25T08:43:52.677Z,1.73
2022-11-25T08:46:25.330Z,1.60
2022-11-25T08:48:52.121Z,1.88
2022-11-25T08:51:22.905Z,2.20
2022-11-25T08:53:51.325Z,1.67
2022-11-25T08:56:25.453Z,1.80
2022-11-25T08:58:53.051Z,1.30
2022-11-25T09:01:20.993Z,1.70
2022-11-25T09:03:50.842Z,1.70
2022-11-25T09:06:18.066Z,1.83
2022-11-25T09:08:45.337Z,3.15
2022-11-25T09:11:12.745Z,1.63
2022-11-25T09:13:39.615Z,1.45
2022-11-25T09:16:07.309Z,1.20
2022-11-25T09:18:35.467Z,1.80
2022-11-25T09:21:08.888Z,2.67
2022-11-25T09:23:35.666Z,1.40
2022-11-25T09:26:02.299Z,1.50
2022-11-25T09:28:29.000Z,2.10
2022-11-25T09:30:55.675Z,1.60
2022-11-25T09:33:22.937Z,2.13
2022-11-25T09:35:50.476Z,2.00
2022-11-25T09:38:17.340Z,1.85
2022-11-25T09:40:58.385Z,2.00
2022-11-25T09:44:14.450Z,2.05
2022-11-25T09:46:51.378Z,2.30
2022-11-25T09:49:27.775Z,2.10
2022-11-25T09:51:54.441Z,2.03
2022-11-25T09:54:29.537Z,2.40
2022-11-25T09:57:04.625Z,3.35
2022-11-25T10:00:00.349Z,2.50
2022-11-25T10:02:38.157Z,1.98
2022-11-25T10:05:22.109Z,2.60
2022-11-25T10:07:53.887Z,2.55
2022-11-25T10:10:27.743Z,2.83
2022-11-25T10:12:56.932Z,2.40
2022-11-25T10:15:28.263Z,3.88
2022-11-25T10:18:00.409Z,2.58
2022-11-25T10:20:46.804Z,3.28
2022-11-25T10:23:27.888Z,2.30
2022-11-25T10:26:14.302Z,2.50
2022-11-25T10:28:48.256Z,2.65
2022-11-25T10:31:20.675Z,2.30
2022-11-25T10:33:53.352Z,2.63
2022-11-25T10:36:33.444Z,3.00
2022-11-25T10:39:11.310Z,3.05
2022-11-25T10:41:52.629Z,2.15
2022-11-25T10:44:28.251Z,2.80
2022-11-25T10:47:14.561Z,2.55
2022-11-25T10:50:22.702Z,3.15
2022-11-25T10:53:12.156Z,4.05
2022-11-25T10:55:39.057Z,3.58
2022-11-25T10:58:42.558Z,3.42
2022-11-25T11:01:22.149Z,3.65
2022-11-25T11:03:55.162Z,3.40
2022-11-25T11:06:43.199Z,3.25
2022-11-25T11:09:33.211Z,2.92
2022-11-25T11:12:13.655Z,2.42
2022-11-25T11:14:40.714Z,2.53
2022-11-25T11:17:29.618Z,2.95
2022-11-25T11:20:06.769Z,3.08
2022-11-25T11:22:34.883Z,4.18
2022-11-25T11:25:19.753Z,4.70
2022-11-25T11:27:47.152Z,3.70
2022-11-25T11:30:24.007Z,4.22
2022-11-25T11:33:06.745Z,4.10
2022-11-25T11:35:58.983Z,3.88
2022-11-25T11:38:53.038Z,3.75
2022-11-25T11:41:34.514Z,3.90
2022-11-25T11:44:13.146Z,3.58
2022-11-25T11:47:01.979Z,3.55
2022-11-25T11:49:46.665Z,2.60
2022-11-25T11:52:40.940Z,2.50
2022-11-25T11:55:41.597Z,3.17
2022-11-25T11:58:18.698Z,3.90
2022-11-25T12:01:08.458Z,3.35
2022-11-25T12:04:01.226Z,2.83
2022-11-25T12:06:31.768Z,3.03
2022-11-25T12:09:07.081Z,3.05
2022-11-25T12:11:39.851Z,1.98
2022-11-25T12:14:20.156Z,3.30
2022-11-25T12:16:55.999Z,3.97
2022-11-25T12:19:55.566Z,4.10
2022-11-25T12:22:25.221Z,3.70
2022-11-25T12:25:16.393Z,4.10
2022-11-25T12:27:50.829Z,3.45
2022-11-25T12:30:17.567Z,3.30
2022-11-25T12:33:07.244Z,3.33
2022-11-25T12:35:52.529Z,2.80
2022-11-25T12:38:26.092Z,3.30
2022-11-25T12:41:14.967Z,3.92
2022-11-25T12:43:49.637Z,4.40
2022-11-25T12:46:40.997Z,3.13
2022-11-25T12:49:17.596Z,2.63
2022-11-25T12:51:59.522Z,3.58
2022-11-25T12:54:41.615Z,3.15
2022-11-25T12:57:29.418Z,3.00
2022-11-25T13:00:39.963Z,3.70
2022-11-25T13:03:24.627Z,6.22
2022-11-25T13:05:54.220Z,3.53
2022-11-25T13:08:58.621Z,2.95
2022-11-25T13:11:49.800Z,3.33
2022-11-25T13:14:26.072Z,3.25
2022-11-25T13:16:54.649Z,3.00
2022-11-25T13:19:22.053Z,3.50
2022-11-25T13:22:00.612Z,3.42
2022-11-25T13:24:28.716Z,3.05
2022-11-25T13:26:55.387Z,2.65
2022-11-25T13:29:24.829Z,3.42
2022-11-25T13:32:25.186Z,2.45
2022-11-25T13:35:26.584Z,2.70
2022-11-25T13:37:53.524Z,2.63
2022-11-25T13:40:26.467Z,2.30
2022-11-25T13:42:55.532Z,2.67
2022-11-25T13:45:39.518Z,1.98
2022-11-25T13:48:21.770Z,2.33
2022-11-25T13:51:11.653Z,2.60
2022-11-25T13:53:38.027Z,1.90
2022-11-25T13:56:26.313Z,2.08
2022-11-25T13:59:11.354Z,1.58
2022-11-25T14:01:39.911Z,2.17
2022-11-25T14:04:14.923Z,1.63
2022-11-25T14:07:07.036Z,1.70
2022-11-25T14:09:55.625Z,1.95
2022-11-25T14:12:24.857Z,1.70
2022-11-25T14:15:11.781Z,1.75
2022-11-25T14:18:02.659Z,1.75
2022-11-25T14:20:45.584Z,1.80
2022-11-25T14:23:36.412Z,1.50
2022-11-25T14:26:41.739Z,1.60
2022-11-25T14:29:23.728Z,1.40
2022-11-25T14:32:07.631Z,1.90
2022-11-25T14:34:39.330Z,1.83
2022-11-25T14:37:23.593Z,1.80
2022-11-25T14:39:56.640Z,1.42
2022-11-25T14:42:26.091Z,1.77
2022-11-25T14:44:58.525Z,1.65
2022-11-25T14:47:27.793Z,2.35
2022-11-25T14:52:47.658Z,1.52
2022-11-25T14:55:26.885Z,1.70
2022-11-25T14:57:53.618Z,1.70
2022-11-25T15:00:20.589Z,1.20
2022-11-25T15:03:06.836Z,1.33
2022-11-25T15:05:37.100Z,1.50
2022-11-25T15:08:11.403Z,2.35
2022-11-25T15:11:00.268Z,1.60
2022-11-25T15:13:43.094Z,1.80
2022-11-25T15:16:14.495Z,1.83
2022-11-25T15:18:58.924Z,2.92
2022-11-25T15:21:53.803Z,3.38
2022-11-25T15:24:24.984Z,2.53
2022-11-25T15:26:54.949Z,2.53
2022-11-25T15:29:22.136Z,1.63
2022-11-25T15:31:51.845Z,1.90
2022-11-25T15:34:19.782Z,1.60
2022-11-25T15:36:51.186Z,1.60
2022-11-25T15:39:20.732Z,1.30
2022-11-25T15:41:49.414Z,1.70
2022-11-25T15:44:26.702Z,1.95
2022-11-25T15:46:57.339Z,1.77
2022-11-25T15:49:24.176Z,1.63
2022-11-25T15:52:03.893Z,1.67
2022-11-25T15:54:38.215Z,2.03
2022-11-25T15:57:17.987Z,1.50
2022-11-25T16:00:05.342Z,1.42
2022-11-25T16:02:38.136Z,1.40
2022-11-25T16:05:16.417Z,1.42
2022-11-25T16:07:52.327Z,1.52
2022-11-25T16:10:19.361Z,1.30
2022-11-25T16:13:24.081Z,1.40
2022-11-25T16:16:24.662Z,2.10
2022-11-25T16:19:03.216Z,1.40
2022-11-25T16:21:41.844Z,1.92
2022-11-25T16:24:29.514Z,1.60
2022-11-25T16:27:25.558Z,1.90
2022-11-25T16:30:20.013Z,1.52
2022-11-25T16:32:46.714Z,1.50
2022-11-25T16:35:16.049Z,1.73
2022-11-25T16:37:47.030Z,1.65
2022-11-25T16:40:15.538Z,2.13
2022-11-25T16:42:46.499Z,1.92
2022-11-25T16:45:28.318Z,2.17
2022-11-25T16:47:55.606Z,2.55
2022-11-25T16:50:22.261Z,2.35
2022-11-25T16:52:49.804Z,2.00
2022-11-25T16:55:18.672Z,1.90
2022-11-25T16:57:46.005Z,2.00
2022-11-25T17:00:17.040Z,2.20
2022-11-25T17:02:44.929Z,3.15
2022-11-25T17:05:19.521Z,4.90
2022-11-25T17:07:47.047Z,3.65
2022-11-25T17:10:14.069Z,4.85
2022-11-25T17:12:42.968Z,2.35
2022-11-25T17:15:16.587Z,4.40
2022-11-25T17:17:46.634Z,3.22
2022-11-25T17:20:23.952Z,2.97
2022-11-25T17:22:52.056Z,3.88
2022-11-25T17:25:21.131Z,5.68
2022-11-25T17:27:49.186Z,5.20
2022-11-25T17:30:24.470Z,3.30
2022-11-25T17:33:19.098Z,3.28
2022-11-25T17:35:46.441Z,3.85
2022-11-25T17:38:17.787Z,3.22
2022-11-25T17:40:45.409Z,4.28
2022-11-25T17:43:17.757Z,3.33
2022-11-25T17:45:45.701Z,2.10
2022-11-25T17:48:15.065Z,2.30
2022-11-25T17:50:42.527Z,2.00
2022-11-25T17:53:09.825Z,2.78
2022-11-25T17:55:37.887Z,2.40
2022-11-25T17:58:05.725Z,2.15
2022-11-25T18:00:34.013Z,2.13
2022-11-25T18:03:00.863Z,2.47
2022-11-25T18:05:30.188Z,1.95
2022-11-25T18:07:57.338Z,2.47
2022-11-25T18:10:27.695Z,1.80
2022-11-25T18:12:56.253Z,2.00
2022-11-25T18:15:30.638Z,2.47
2022-11-25T18:18:03.958Z,2.40
2022-11-25T18:20:33.057Z,2.88
2022-11-25T18:23:01.025Z,2.53
2022-11-25T18:25:31.433Z,4.22
2022-11-25T18:28:00.027Z,3.78
2022-11-25T18:30:29.489Z,4.85
2022-11-25T18:32:57.423Z,3.60
2022-11-25T18:35:32.507Z,3.90
2022-11-25T18:38:02.319Z,3.67
2022-11-25T18:40:29.796Z,3.25
2022-11-25T18:43:00.370Z,2.85
2022-11-25T18:45:38.033Z,2.40
2022-11-25T18:48:15.765Z,2.85
2022-11-25T18:50:44.295Z,2.53
2022-11-25T18:53:11.491Z,3.22
2022-11-25T18:55:38.786Z,2.55
2022-11-25T18:58:15.809Z,3.15
2022-11-25T19:00:43.152Z,2.88
2022-11-25T19:03:18.318Z,2.30
2022-11-25T19:05:45.248Z,2.75
2022-11-25T19:08:12.115Z,2.15
2022-11-25T19:10:40.444Z,2.42
2022-11-25T19:13:12.736Z,2.40
2022-11-25T19:15:39.673Z,2.90
2022-11-25T19:18:07.297Z,2.53
2022-11-25T19:20:33.952Z,2.50
2022-11-25T19:23:13.469Z,2.25
2022-11-25T19:25:40.152Z,2.47
2022-11-25T19:28:06.924Z,2.75
2022-11-25T19:30:33.600Z,2.90
2022-11-25T19:33:02.352Z,2.83
2022-11-25T19:35:38.451Z,2.85
2022-11-25T19:38:15.348Z,8.65
2022-11-25T19:40:42.050Z,7.55
2022-11-25T19:43:08.778Z,8.32
2022-11-25T19:45:36.564Z,12.15
2022-11-25T19:48:07.645Z,10.18
2022-11-25T19:50:37.286Z,11.80
2022-11-25T19:53:04.043Z,8.63
2022-11-25T19:55:32.421Z,8.52
2022-11-25T19:57:59.641Z,7.50
2022-11-25T20:00:26.820Z,7.55
2022-11-25T20:02:55.561Z,7.72
2022-11-25T20:05:37.424Z,5.10
2022-11-25T20:08:04.879Z,4.85
2022-11-25T20:10:32.347Z,4.22
2022-11-25T20:12:59.651Z,5.57
2022-11-25T20:15:26.919Z,4.75
2022-11-25T20:17:58.127Z,5.75
2022-11-25T20:20:30.730Z,4.53
2022-11-25T20:23:21.044Z,5.07
2022-11-25T20:25:49.404Z,4.30
2022-11-25T20:28:18.702Z,5.80
2022-11-25T20:30:46.829Z,4.60
2022-11-25T20:33:13.866Z,4.57
2022-11-25T20:35:42.770Z,5.18
2022-11-25T20:38:20.403Z,3.78
2022-11-25T20:40:50.907Z,4.13
2022-11-25T20:43:23.587Z,4.38
2022-11-25T20:45:51.150Z,4.88
2022-11-25T20:48:17.911Z,4.45
2022-11-25T20:50:44.847Z,4.70
2022-11-25T20:53:20.158Z,3.15
2022-11-25T20:55:48.297Z,3.05
2022-11-25T20:58:28.633Z,3.60
2022-11-25T21:00:57.809Z,3.75
2022-11-25T21:03:25.601Z,3.65
2022-11-25T21:05:53.765Z,8.38
2022-11-25T21:08:24.141Z,14.70
2022-11-25T21:10:53.264Z,11.05
2022-11-25T21:13:25.889Z,5.90
2022-11-25T21:15:57.047Z,5.90
2022-11-25T21:18:24.147Z,11.00
2022-11-25T21:20:54.301Z,16.13
2022-11-25T21:23:29.030Z,11.23
2022-11-25T21:26:20.425Z,14.65
2022-11-25T21:28:49.083Z,28.13
2022-11-25T21:31:20.040Z,21.08
2022-11-25T21:33:47.777Z,12.00
2022-11-25T21:36:36.576Z,14.07
2022-11-25T21:39:07.831Z,7.43
2022-11-25T21:41:35.389Z,5.25
2022-11-25T21:44:06.147Z,5.40
2022-11-25T21:46:32.930Z,4.88
2022-11-25T21:48:59.777Z,4.25
2022-11-25T21:51:26.521Z,6.95
2022-11-25T21:53:54.171Z,4.47
2022-11-25T21:56:30.903Z,4.18
2022-11-25T21:59:00.098Z,3.63
2022-11-25T22:01:27.781Z,3.10
2022-11-25T22:03:54.842Z,3.88
2022-11-25T22:06:22.774Z,3.40
2022-11-25T22:08:49.817Z,3.63
2022-11-25T22:11:20.096Z,3.13
2022-11-25T22:13:49.017Z,2.78
2022-11-25T22:16:20.750Z,3.13
2022-11-25T22:18:47.556Z,2.90
2022-11-25T22:21:15.035Z,4.13
2022-11-25T22:23:42.301Z,4.53
2022-11-25T22:26:25.664Z,3.13
2022-11-25T22:28:53.553Z,3.58
2022-11-25T22:31:20.768Z,3.53
2022-11-25T22:33:48.069Z,2.65
2022-11-25T22:36:30.699Z,3.15
2022-11-25T22:39:21.958Z,2.43
2022-11-25T22:41:55.245Z,2.45
2022-11-25T22:46:59.345Z,3.25
2022-11-25T22:49:35.328Z,2.65
2022-11-25T22:52:02.529Z,3.35
2022-11-25T22:54:29.381Z,5.32
2022-11-25T22:56:56.948Z,4.00
2022-11-25T22:59:23.782Z,6.15
2022-11-25T23:01:50.564Z,4.18
2022-11-25T23:04:20.085Z,3.88
2022-11-25T23:06:47.757Z,3.75
2022-11-25T23:09:18.075Z,3.75
2022-11-25T23:11:46.465Z,2.78
2022-11-25T23:14:13.831Z,4.05
2022-11-25T23:16:42.379Z,3.25
2022-11-25T23:19:16.106Z,2.90
2022-11-25T23:21:45.139Z,2.67
2022-11-25T23:24:16.531Z,2.38
2022-11-25T23:26:43.960Z,2.45
2022-11-25T23:29:10.571Z,3.47
2022-11-25T23:31:39.452Z,2.55
2022-11-25T23:34:07.808Z,2.03
2022-11-25T23:36:47.532Z,2.70
2022-11-25T23:39:21.297Z,2.17
2022-11-25T23:41:49.094Z,2.50
2022-11-25T23:44:22.208Z,2.63
2022-11-25T23:46:48.953Z,2.03
2022-11-25T23:49:22.761Z,2.33
2022-11-25T23:51:50.081Z,3.72
2022-11-25T23:54:21.258Z,2.60
2022-11-25T23:56:48.216Z,2.67
2022-11-25T23:59:16.994Z,3.70
